Time;durP1;ratioP1;P1;durP2;ratioP2;P2;SDS_P1;SDS_P2;PMS_P1;PMS_P2;Temp;Humidity;BMP_temperature;BMP_pressure;BME280_temperature;BME280_humidity;BME280_pressure;Samples;Min_cycle;Max_cycle;Signal;HPM_P1;HPM_P2
2023/03/31 00:01:34;;;;;;;6.78;2.10;;;;;;;11.86;nan;100227.03;4968189;28;20034;-47
2023/03/31 00:04:03;;;;;;;6.10;1.20;;;;;;;11.84;nan;100219.25;4960394;28;20102;-45
2023/03/31 00:06:31;;;;;;;4.45;2.17;;;;;;;11.83;nan;100225.47;4942871;28;20026;-46
2023/03/31 00:09:00;;;;;;;5.07;2.47;;;;;;;11.84;nan;100219.25;4962258;28;20039;-46
2023/03/31 00:11:27;;;;;;;4.85;1.48;;;;;;;11.83;nan;100214.91;4956940;28;20023;-46
2023/03/31 00:13:53;;;;;;;4.30;1.52;;;;;;;11.81;nan;100216.81;4966912;28;20030;-46
2023/03/31 00:16:18;;;;;;;4.68;1.83;;;;;;;11.81;nan;100216.81;4958784;28;20039;-45
2023/03/31 00:18:46;;;;;;;7.10;2.20;;;;;;;11.81;nan;100211.53;4946310;28;20066;-46
2023/03/31 00:21:28;;;;;;;5.35;1.60;;;;;;;11.82;nan;100209.75;4954615;28;20093;-47
2023/03/31 00:23:55;;;;;;;3.83;1.85;;;;;;;11.82;nan;100207.97;4953848;28;20438;-50
2023/03/31 00:26:21;;;;;;;4.15;1.70;;;;;;;11.82;nan;100197.41;4964016;28;20050;-47
2023/03/31 00:28:48;;;;;;;7.55;2.30;;;;;;;11.82;nan;100205.31;4971133;28;20062;-48
2023/03/31 00:31:14;;;;;;;3.60;1.25;;;;;;;11.83;nan;100198.25;4959460;28;20030;-46
2023/03/31 00:33:40;;;;;;;3.85;1.80;;;;;;;11.80;nan;100201.94;4960023;28;20081;-48
2023/03/31 00:36:08;;;;;;;7.32;2.28;;;;;;;11.80;nan;100201.94;4964989;28;20027;-50
2023/03/31 00:38:34;;;;;;;7.68;2.47;;;;;;;11.80;nan;100194.03;4965282;28;20043;-46
2023/03/31 00:41:01;;;;;;;6.63;2.25;;;;;;;11.80;nan;100193.22;4958132;28;20019;-46
2023/03/31 00:43:36;;;;;;;4.85;2.38;;;;;;;11.80;nan;100186.13;4958832;28;20027;-50
2023/03/31 00:46:23;;;;;;;6.15;2.40;;;;;;;11.83;nan;100188.56;4960139;28;20408;-46
2023/03/31 00:48:53;;;;;;;8.65;2.60;;;;;;;11.80;nan;100188.78;4965537;28;20075;-46
2023/03/31 00:51:21;;;;;;;5.28;2.25;;;;;;;11.84;nan;100184.13;4960356;28;20071;-48
2023/03/31 00:53:56;;;;;;;5.47;2.17;;;;;;;11.86;nan;100187.47;4966925;28;20046;-48
2023/03/31 00:56:23;;;;;;;9.15;2.78;;;;;;;11.85;nan;100181.38;4964429;28;20030;-46
2023/03/31 00:58:49;;;;;;;5.93;2.80;;;;;;;11.85;nan;100184.03;4967330;28;20528;-45
2023/03/31 01:01:23;;;;;;;9.13;2.65;;;;;;;11.87;nan;100166.28;4961845;28;20031;-47
2023/03/31 01:03:49;;;;;;;6.35;2.22;;;;;;;11.87;nan;100163.63;4956565;28;20027;-44
2023/03/31 01:06:18;;;;;;;7.15;2.22;;;;;;;11.88;nan;100175.88;4967693;28;20035;-44
2023/03/31 01:08:46;;;;;;;8.82;2.38;;;;;;;11.90;nan;100171.31;4967215;28;20567;-47
2023/03/31 01:11:15;;;;;;;10.07;4.28;;;;;;;11.90;nan;100168.69;4962747;28;20085;-48
2023/03/31 01:13:42;;;;;;;5.85;2.45;;;;;;;11.90;nan;100168.69;4958189;28;20085;-46
2023/03/31 01:16:07;;;;;;;9.43;2.60;;;;;;;11.90;nan;100159.97;4965928;28;20031;-47
2023/03/31 01:18:33;;;;;;;7.75;2.65;;;;;;;11.88;nan;100157.41;4964526;28;20547;-45
2023/03/31 01:21:05;;;;;;;5.80;2.60;;;;;;;11.89;nan;100156.47;4962470;28;21386;-44
2023/03/31 01:24:09;;;;;;;9.60;2.55;;;;;;;11.89;nan;100156.47;4968509;28;20026;-44
2023/03/31 01:26:53;;;;;;;6.32;2.55;;;;;;;11.92;nan;100162.47;4933829;28;20130;-44
2023/03/31 01:29:43;;;;;;;8.75;2.78;;;;;;;11.99;nan;100153.22;4966624;28;20038;-46
2023/03/31 01:32:17;;;;;;;9.00;2.33;;;;;;;12.03;nan;100157.28;4959320;28;20026;-47
2023/03/31 01:35:13;;;;;;;11.25;2.95;;;;;;;12.05;nan;100150.09;4964818;28;20093;-46
2023/03/31 01:38:09;;;;;;;9.43;3.25;;;;;;;12.05;nan;100144.81;4964651;28;20034;-47
2023/03/31 01:40:40;;;;;;;9.73;2.60;;;;;;;12.04;nan;100151.91;4955086;28;20109;-49
2023/03/31 01:43:57;;;;;;;6.63;2.87;;;;;;;12.05;nan;100147.47;4964779;28;20038;-48
2023/03/31 01:46:42;;;;;;;7.50;2.83;;;;;;;12.03;nan;100152.00;4970633;28;20030;-47
2023/03/31 01:49:08;;;;;;;10.20;3.85;;;;;;;12.02;nan;100150.34;4963323;28;20093;-47
2023/03/31 01:51:43;;;;;;;9.30;2.30;;;;;;;12.06;nan;100143.88;4965849;28;20039;-47
2023/03/31 01:54:08;;;;;;;9.48;2.47;;;;;;;12.07;nan;100144.72;4970384;28;20433;-47
2023/03/31 01:56:35;;;;;;;9.40;3.03;;;;;;;12.08;nan;100139.34;4969227;28;20023;-44
2023/03/31 01:59:04;;;;;;;9.32;3.58;;;;;;;12.08;nan;100141.97;4966051;28;20074;-45
2023/03/31 02:01:45;;;;;;;11.82;3.90;;;;;;;12.11;nan;100135.63;4971324;28;20034;-47
2023/03/31 02:04:41;;;;;;;4.82;2.45;;;;;;;12.11;nan;100128.56;4965102;28;20398;-46
2023/03/31 02:07:23;;;;;;;6.72;2.28;;;;;;;12.13;nan;100136.34;4956874;28;20419;-47
2023/03/31 02:09:56;;;;;;;8.02;3.53;;;;;;;12.10;nan;100131.31;4959562;28;20035;-49
2023/03/31 02:12:25;;;;;;;7.20;2.63;;;;;;;12.08;nan;100128.78;4962901;28;20047;-46
2023/03/31 02:14:53;;;;;;;9.43;2.85;;;;;;;12.09;nan;100124.38;4965599;28;20524;-48
2023/03/31 02:17:28;;;;;;;7.10;2.28;;;;;;;12.12;nan;100129.38;4958513;28;20035;-53
2023/03/31 02:19:56;;;;;;;7.22;2.90;;;;;;;12.13;nan;100120.53;4968857;28;20057;-48
2023/03/31 02:22:22;;;;;;;8.98;2.95;;;;;;;12.16;nan;100120.31;4966520;28;20034;-48
2023/03/31 02:24:52;;;;;;;7.60;2.08;;;;;;;12.14;nan;100107.25;4967056;28;20026;-46
2023/03/31 02:27:30;;;;;;;9.05;2.50;;;;;;;12.15;nan;100102.78;4965160;28;20034;-50
2023/03/31 02:29:56;;;;;;;10.63;2.60;;;;;;;12.15;nan;100097.53;4959271;28;20039;-46
2023/03/31 02:32:28;;;;;;;7.93;2.33;;;;;;;12.15;nan;100101.03;4959638;28;20038;-47
2023/03/31 02:34:54;;;;;;;10.10;2.92;;;;;;;12.17;nan;100095.63;4966073;28;20031;-47
2023/03/31 02:37:20;;;;;;;7.20;2.75;;;;;;;12.17;nan;100100.88;4965578;28;20265;-46
2023/03/31 02:39:51;;;;;;;13.25;3.00;;;;;;;12.16;nan;100100.06;4970061;28;20545;-46
2023/03/31 02:42:18;;;;;;;5.10;2.50;;;;;;;12.16;nan;100100.06;4970186;28;20087;-45
2023/03/31 02:44:43;;;;;;;7.38;2.92;;;;;;;12.18;nan;100092.03;4967624;28;20042;-47
2023/03/31 02:47:13;;;;;;;14.38;3.03;;;;;;;12.18;nan;100087.56;4967256;28;20026;-48
2023/03/31 02:49:43;;;;;;;9.18;2.75;;;;;;;12.18;nan;100086.75;4961286;28;20039;-47
2023/03/31 02:52:22;;;;;;;15.65;3.03;;;;;;;12.19;nan;100083.97;4963725;28;20392;-46
2023/03/31 02:55:06;;;;;;;10.05;2.50;;;;;;;12.17;nan;100085.06;4965330;28;20438;-46
2023/03/31 02:57:59;;;;;;;10.57;2.53;;;;;;;12.17;nan;100088.56;4962220;28;20037;-46
2023/03/31 03:00:50;;;;;;;11.27;2.53;;;;;;;12.18;nan;100081.47;4961357;28;20113;-46
2023/03/31 03:03:51;;;;;;;6.38;2.78;;;;;;;12.16;nan;100065.78;4958661;28;20047;-47
2023/03/31 03:06:16;;;;;;;8.85;3.35;;;;;;;12.18;nan;100071.75;4960157;28;20106;-46
2023/03/31 03:09:05;;;;;;;7.82;2.97;;;;;;;12.18;nan;100071.75;4962121;28;20109;-49
2023/03/31 03:11:51;;;;;;;4.38;2.22;;;;;;;12.19;nan;100073.44;4961087;28;20540;-46
2023/03/31 03:14:20;;;;;;;10.10;2.55;;;;;;;12.19;nan;100067.34;4967083;28;20038;-50
2023/03/31 03:16:50;;;;;;;5.30;2.10;;;;;;;12.19;nan;100070.78;4961361;28;20081;-49
2023/03/31 03:19:21;;;;;;;11.80;2.65;;;;;;;12.20;nan;100069.00;4962692;28;20023;-46
2023/03/31 03:21:47;;;;;;;5.65;2.90;;;;;;;12.20;nan;100072.47;4967083;28;20173;-47
2023/03/31 03:24:16;;;;;;;10.50;3.05;;;;;;;12.20;nan;100063.75;4966188;28;20145;-47
2023/03/31 03:26:43;;;;;;;9.13;2.05;;;;;;;12.18;nan;100071.75;4967296;28;20031;-43
2023/03/31 03:29:12;;;;;;;10.18;2.08;;;;;;;12.17;nan;100069.25;4966506;28;20030;-46
2023/03/31 03:31:38;;;;;;;8.07;2.33;;;;;;;12.13;nan;100068.63;4959004;28;20039;-46
2023/03/31 03:34:03;;;;;;;5.88;2.17;;;;;;;12.12;nan;100071.38;4967122;28;20035;-46
2023/03/31 03:36:29;;;;;;;8.18;1.85;;;;;;;12.13;nan;100075.69;4961297;28;20041;-47
2023/03/31 03:38:54;;;;;;;7.30;1.80;;;;;;;12.12;nan;100069.59;4962182;28;20031;-45
2023/03/31 03:41:20;;;;;;;6.60;1.85;;;;;;;12.11;nan;100075.81;4967857;28;20034;-46
2023/03/31 03:43:45;;;;;;;7.97;2.13;;;;;;;12.08;nan;100068.13;4969471;28;20027;-47
2023/03/31 03:46:11;;;;;;;16.42;5.72;;;;;;;12.06;nan;100059.50;4968661;28;20042;-47
2023/03/31 03:48:36;;;;;;;9.70;1.92;;;;;;;12.05;nan;100063.09;4963258;28;20065;-46
2023/03/31 03:51:02;;;;;;;7.38;2.40;;;;;;;12.00;nan;100063.44;4964713;28;20039;-46
2023/03/31 03:53:27;;;;;;;6.20;2.50;;;;;;;11.95;nan;100064.69;4964085;28;20081;-45
2023/03/31 03:55:53;;;;;;;7.10;2.03;;;;;;;11.93;nan;100058.69;4967362;28;20717;-46
2023/03/31 03:58:18;;;;;;;8.82;2.92;;;;;;;11.88;nan;100059.03;4957709;28;20062;-45
2023/03/31 04:00:45;;;;;;;8.80;2.28;;;;;;;11.84;nan;100054.94;4965978;28;20054;-48
2023/03/31 04:03:11;;;;;;;6.50;2.08;;;;;;;11.81;nan;100063.06;4967880;28;20038;-46
2023/03/31 04:05:37;;;;;;;9.02;1.98;;;;;;;11.77;nan;100051.94;4962689;28;20056;-44
2023/03/31 04:08:03;;;;;;;6.25;2.30;;;;;;;11.73;nan;100047.81;4959385;28;20031;-47
2023/03/31 04:10:29;;;;;;;9.65;2.28;;;;;;;11.71;nan;100047.13;4962516;28;20113;-46
2023/03/31 04:12:54;;;;;;;9.70;2.05;;;;;;;11.68;nan;100044.72;4960813;28;20455;-48
2023/03/31 04:15:20;;;;;;;10.40;3.38;;;;;;;11.67;nan;100029.84;4968599;28;20042;-44
2023/03/31 04:17:49;;;;;;;8.75;3.85;;;;;;;11.63;nan;100034.50;4967215;28;20027;-46
2023/03/31 04:20:15;;;;;;;6.90;2.33;;;;;;;11.59;nan;100028.59;4964098;28;20023;-45
2023/03/31 04:22:40;;;;;;;5.85;2.53;;;;;;;11.61;nan;100025.03;4966493;28;20042;-47
2023/03/31 04:25:16;;;;;;;9.95;2.58;;;;;;;11.58;nan;100021.66;4968712;28;20035;-46
2023/03/31 04:27:53;;;;;;;9.02;2.78;;;;;;;11.56;nan;100018.31;4963813;28;20369;-46
2023/03/31 04:30:23;;;;;;;8.98;2.22;;;;;;;11.54;nan;100019.38;4965725;28;20481;-45
2023/03/31 04:32:53;;;;;;;10.40;2.08;;;;;;;11.52;nan;100006.31;4963414;28;20077;-46
2023/03/31 04:35:23;;;;;;;10.90;2.80;;;;;;;11.51;nan;100004.63;4963783;28;20054;-47
2023/03/31 04:37:57;;;;;;;8.23;2.42;;;;;;;11.53;nan;100002.72;4960629;28;20041;-44
2023/03/31 04:40:23;;;;;;;6.38;2.17;;;;;;;11.48;nan;100010.13;4957725;28;20019;-49
2023/03/31 04:42:49;;;;;;;6.72;2.63;;;;;;;11.46;nan;99996.22;4955285;28;20035;-45
2023/03/31 04:45:14;;;;;;;11.57;2.40;;;;;;;11.46;nan;99996.22;4958601;28;20041;-46
2023/03/31 04:47:41;;;;;;;10.13;2.78;;;;;;;11.46;nan;99993.56;4962754;28;20034;-47
2023/03/31 04:50:07;;;;;;;9.43;2.55;;;;;;;11.41;nan;100001.81;4958914;28;20410;-47
2023/03/31 04:52:32;;;;;;;12.10;3.03;;;;;;;11.39;nan;99995.81;4967419;28;20022;-47
2023/03/31 04:54:57;;;;;;;7.80;2.45;;;;;;;11.38;nan;99993.31;4970410;28;20027;-48
2023/03/31 04:57:23;;;;;;;6.53;2.08;;;;;;;11.36;nan;99995.22;4959086;28;20027;-47
2023/03/31 04:59:48;;;;;;;13.85;3.22;;;;;;;11.31;nan;99994.69;4963100;28;20026;-46
2023/03/31 05:02:20;;;;;;;8.52;2.67;;;;;;;11.29;nan;99992.19;4964774;28;20038;-45
2023/03/31 05:04:46;;;;;;;11.07;2.90;;;;;;;11.33;nan;99996.28;4961885;28;20031;-44
2023/03/31 05:07:11;;;;;;;9.32;2.20;;;;;;;11.39;nan;99995.81;4962677;28;20041;-46
2023/03/31 05:09:36;;;;;;;4.35;2.50;;;;;;;11.46;nan;99990.94;4959720;28;20035;-46
2023/03/31 05:12:02;;;;;;;11.95;2.30;;;;;;;11.51;nan;99986.19;4967468;28;20114;-45
2023/03/31 05:14:27;;;;;;;9.20;1.88;;;;;;;11.54;nan;99978.06;4973345;28;20396;-45
2023/03/31 05:16:56;;;;;;;8.05;2.30;;;;;;;11.59;nan;99989.09;4964738;28;20177;-49
2023/03/31 05:19:22;;;;;;;6.78;2.28;;;;;;;11.61;nan;99983.72;4968161;28;20106;-46
2023/03/31 05:21:47;;;;;;;11.45;2.40;;;;;;;11.65;nan;99974.59;4966378;28;20157;-47
2023/03/31 05:24:13;;;;;;;4.65;2.25;;;;;;;11.68;nan;99974.38;4972892;28;20035;-47
2023/03/31 05:26:40;;;;;;;7.88;2.33;;;;;;;11.72;nan;99969.75;4966975;28;20035;-49
2023/03/31 05:29:05;;;;;;;6.25;2.80;;;;;;;11.77;nan;99964.94;4965322;28;20030;-45
2023/03/31 05:31:31;;;;;;;3.63;1.88;;;;;;;11.82;nan;99964.59;4970415;28;20030;-46
2023/03/31 05:33:56;;;;;;;6.07;2.13;;;;;;;11.86;nan;99961.63;4973976;28;20038;-45
2023/03/31 05:36:22;;;;;;;5.57;2.80;;;;;;;11.90;nan;99957.78;4970590;28;20039;-45
2023/03/31 05:38:48;;;;;;;9.70;3.22;;;;;;;11.89;nan;99955.28;4971689;28;20031;-45
2023/03/31 05:41:15;;;;;;;9.25;3.17;;;;;;;11.87;nan;99947.47;4972568;28;20077;-45
2023/03/31 05:43:42;;;;;;;10.70;3.20;;;;;;;11.89;nan;99952.66;4963113;28;20441;-45
2023/03/31 05:46:08;;;;;;;6.53;3.03;;;;;;;11.88;nan;99941.25;4969821;28;20061;-46
2023/03/31 05:48:33;;;;;;;7.28;3.45;;;;;;;11.88;nan;99940.41;4968534;28;20122;-45
2023/03/31 05:50:59;;;;;;;8.65;3.83;;;;;;;11.87;nan;99949.28;4967677;28;20358;-46
2023/03/31 05:53:25;;;;;;;9.82;4.07;;;;;;;11.89;nan;99950.84;4962722;28;20067;-45
2023/03/31 05:56:00;;;;;;;6.25;3.75;;;;;;;11.96;nan;99943.28;4959813;28;20053;-46
2023/03/31 05:58:26;;;;;;;9.43;3.20;;;;;;;12.02;nan;99942.88;4970462;28;20031;-46
2023/03/31 06:01:10;;;;;;;10.88;3.58;;;;;;;12.05;nan;99939.16;4973045;28;20569;-46
2023/03/31 06:03:39;;;;;;;10.48;3.53;;;;;;;12.05;nan;99933.88;4968559;28;20035;-45
2023/03/31 06:06:06;;;;;;;8.05;2.95;;;;;;;12.07;nan;99934.59;4966472;28;20046;-45
2023/03/31 06:08:36;;;;;;;5.43;2.55;;;;;;;12.09;nan;99930.06;4958836;28;20775;-45
2023/03/31 06:11:12;;;;;;;9.05;3.20;;;;;;;12.15;nan;99932.22;4972199;28;20473;-46
2023/03/31 06:13:39;;;;;;;8.57;2.17;;;;;;;12.18;nan;99934.59;4967943;28;20054;-47
2023/03/31 06:16:06;;;;;;;5.72;2.30;;;;;;;12.24;nan;99927.19;4970871;28;20358;-46
2023/03/31 06:18:33;;;;;;;6.55;2.75;;;;;;;12.30;nan;99921.44;4961631;28;20505;-45
2023/03/31 06:20:59;;;;;;;6.03;2.45;;;;;;;12.35;nan;99927.19;4969490;28;20126;-45
2023/03/31 06:23:25;;;;;;;7.93;2.20;;;;;;;12.37;nan;99929.72;4971249;28;20034;-45
2023/03/31 06:25:51;;;;;;;11.57;2.63;;;;;;;12.36;nan;99920.94;4963806;28;20031;-45
2023/03/31 06:28:17;;;;;;;10.10;2.47;;;;;;;12.38;nan;99920.84;4969648;28;20023;-46
2023/03/31 06:30:42;;;;;;;8.20;2.85;;;;;;;12.41;nan;99902.97;4959106;28;20551;-45
2023/03/31 06:33:08;;;;;;;6.03;2.22;;;;;;;12.44;nan;99908.00;4966867;28;20039;-45
2023/03/31 06:35:36;;;;;;;6.18;2.50;;;;;;;12.46;nan;99911.38;4971562;28;20041;-45
2023/03/31 06:38:02;;;;;;;3.83;1.95;;;;;;;12.49;nan;99905.00;4965845;28;20086;-44
2023/03/31 06:40:28;;;;;;;5.90;2.47;;;;;;;12.50;nan;99902.22;4967534;28;20042;-46
2023/03/31 06:42:54;;;;;;;8.27;2.40;;;;;;;12.55;nan;99895.75;4969003;28;20045;-46
2023/03/31 06:45:19;;;;;;;9.15;2.60;;;;;;;12.57;nan;99907.03;4970677;28;20106;-46
2023/03/31 06:47:45;;;;;;;7.53;2.20;;;;;;;12.63;nan;99899.47;4965125;28;20038;-46
2023/03/31 06:50:10;;;;;;;7.95;1.88;;;;;;;12.69;nan;99897.31;4971657;28;20039;-46
2023/03/31 06:52:36;;;;;;;7.65;2.10;;;;;;;12.77;nan;99897.50;4963482;28;20058;-46
2023/03/31 06:55:02;;;;;;;7.50;2.63;;;;;;;12.85;nan;99899.53;4965986;28;20717;-48
2023/03/31 06:57:28;;;;;;;5.30;2.20;;;;;;;12.92;nan;99901.56;4968367;28;20035;-45
2023/03/31 06:59:54;;;;;;;6.88;2.65;;;;;;;12.99;nan;99899.25;4969827;28;20031;-46
2023/03/31 07:02:20;;;;;;;6.00;1.60;;;;;;;13.03;nan;99894.53;4958827;28;20058;-45
2023/03/31 07:04:45;;;;;;;6.85;2.85;;;;;;;13.07;nan;99895.97;4966578;28;20496;-46
2023/03/31 07:07:11;;;;;;;6.78;2.15;;;;;;;13.10;nan;99890.44;4969825;28;20045;-44
2023/03/31 07:09:37;;;;;;;8.27;2.22;;;;;;;13.17;nan;99885.50;4969070;28;20035;-45
2023/03/31 07:12:04;;;;;;;4.50;1.90;;;;;;;13.22;nan;99893.91;4963488;28;20029;-45
2023/03/31 07:14:32;;;;;;;6.38;1.73;;;;;;;13.29;nan;99895.06;4957089;28;20117;-46
2023/03/31 07:16:58;;;;;;;4.47;1.50;;;;;;;13.33;nan;99893.84;4965390;28;20038;-46
2023/03/31 07:19:24;;;;;;;4.03;1.77;;;;;;;13.36;nan;99898.88;4967228;28;20026;-46
2023/03/31 07:21:50;;;;;;;5.63;1.63;;;;;;;13.39;nan;99885.38;4967575;28;20105;-45
2023/03/31 07:24:16;;;;;;;8.50;1.80;;;;;;;13.41;nan;99896.69;4966141;28;20442;-45
2023/03/31 07:26:42;;;;;;;5.20;1.45;;;;;;;13.47;nan;99898.00;4958740;28;20027;-46
2023/03/31 07:29:07;;;;;;;7.18;2.05;;;;;;;13.46;nan;99893.66;4966220;28;20122;-46
2023/03/31 07:31:33;;;;;;;6.85;1.90;;;;;;;13.46;nan;99890.19;4961252;28;20421;-46
2023/03/31 07:34:01;;;;;;;5.90;2.13;;;;;;;13.48;nan;99893.56;4963105;28;20049;-45
2023/03/31 07:36:27;;;;;;;8.90;2.20;;;;;;;13.48;nan;99891.75;4972105;28;20149;-46
2023/03/31 07:38:52;;;;;;;4.90;1.80;;;;;;;13.46;nan;99887.56;4967135;28;20593;-46
2023/03/31 07:41:20;;;;;;;4.15;2.00;;;;;;;13.43;nan;99898.38;4967218;28;20122;-46
2023/03/31 07:43:46;;;;;;;5.70;1.90;;;;;;;13.41;nan;99886.13;4966293;28;20031;-45
2023/03/31 07:46:19;;;;;;;6.55;2.08;;;;;;;13.40;nan;99887.09;4966545;28;20117;-45
2023/03/31 07:48:45;;;;;;;7.50;1.83;;;;;;;13.38;nan;99889.03;4961278;28;20050;-46
2023/03/31 07:51:13;;;;;;;4.53;1.70;;;;;;;13.37;nan;99887.34;4964071;28;20034;-46
2023/03/31 07:53:39;;;;;;;5.68;1.88;;;;;;;13.37;nan;99878.56;4969445;28;20027;-45
2023/03/31 07:56:04;;;;;;;2.42;1.70;;;;;;;13.40;nan;99879.16;4967750;28;20035;-46
2023/03/31 07:58:30;;;;;;;5.45;1.70;;;;;;;13.42;nan;99881.69;4962440;28;20129;-46
2023/03/31 08:00:55;;;;;;;6.50;1.58;;;;;;;13.46;nan;99877.81;4968745;28;20034;-46
2023/03/31 08:03:21;;;;;;;5.47;2.30;;;;;;;13.49;nan;99860.88;4965867;28;20105;-46
2023/03/31 08:05:46;;;;;;;7.45;2.22;;;;;;;13.50;nan;99865.19;4968402;28;20093;-45
2023/03/31 08:08:12;;;;;;;5.15;2.00;;;;;;;13.58;nan;99865.38;4966497;28;20035;-45
2023/03/31 08:10:37;;;;;;;9.48;2.28;;;;;;;13.63;nan;99863.19;4966983;28;20038;-46
2023/03/31 08:13:03;;;;;;;5.07;1.55;;;;;;;13.64;nan;99856.94;4962624;28;20393;-45
2023/03/31 08:15:28;;;;;;;8.18;2.10;;;;;;;13.66;nan;99851.50;4966082;28;20083;-45
2023/03/31 08:17:54;;;;;;;7.30;2.13;;;;;;;13.68;nan;99850.44;4963540;28;20070;-46
2023/03/31 08:20:19;;;;;;;9.82;2.55;;;;;;;13.69;nan;99846.78;4968205;28;20066;-46
2023/03/31 08:22:45;;;;;;;7.50;1.85;;;;;;;13.71;nan;99842.22;4953424;28;20442;-45
2023/03/31 08:25:10;;;;;;;9.20;2.17;;;;;;;13.76;nan;99835.72;4961972;28;20034;-47
2023/03/31 08:27:38;;;;;;;10.70;2.78;;;;;;;13.83;nan;99831.59;4963868;28;20038;-46
2023/03/31 08:30:07;;;;;;;8.30;2.03;;;;;;;13.91;nan;99826.47;4970427;28;20478;-47
2023/03/31 08:32:33;;;;;;;7.38;1.90;;;;;;;13.97;nan;99818.00;4965695;28;20046;-46
2023/03/31 08:35:00;;;;;;;9.48;2.63;;;;;;;14.02;nan;99820.25;4964234;28;20074;-47
2023/03/31 08:37:27;;;;;;;5.00;1.85;;;;;;;14.01;nan;99819.38;4963971;28;20026;-46
2023/03/31 08:39:53;;;;;;;5.75;1.85;;;;;;;14.04;nan;99807.72;4963037;28;20080;-46
2023/03/31 08:42:37;;;;;;;5.28;1.77;;;;;;;14.11;nan;99808.03;4970240;28;20497;-46
2023/03/31 08:45:22;;;;;;;4.45;1.52;;;;;;;14.13;nan;99806.09;4969092;28;20485;-45
2023/03/31 08:47:52;;;;;;;11.38;2.00;;;;;;;14.19;nan;99805.53;4967221;28;20033;-45
2023/03/31 08:50:26;;;;;;;6.22;2.08;;;;;;;14.28;nan;99804.72;4965952;28;20031;-45
2023/03/31 08:53:11;;;;;;;9.15;3.15;;;;;;;14.40;nan;99807.25;4976348;28;20041;-46
2023/03/31 08:55:55;;;;;;;8.35;1.80;;;;;;;14.48;nan;99796.81;4970715;28;20027;-45
2023/03/31 08:58:32;;;;;;;7.07;2.00;;;;;;;14.51;nan;99798.38;4972835;28;20045;-46
2023/03/31 09:01:03;;;;;;;11.60;2.05;;;;;;;14.55;nan;99797.94;4975487;28;20421;-46
2023/03/31 09:04:00;;;;;;;8.82;2.13;;;;;;;14.64;nan;99791.81;4971780;28;20034;-46
2023/03/31 09:06:37;;;;;;;8.10;2.15;;;;;;;14.75;nan;99787.38;4969252;28;20042;-45
2023/03/31 09:09:10;;;;;;;10.18;3.00;;;;;;;14.82;nan;99780.56;4961433;28;20112;-46
2023/03/31 09:11:54;;;;;;;12.65;2.45;;;;;;;14.92;nan;99776.09;4970510;28;20559;-47
2023/03/31 09:14:30;;;;;;;5.90;2.05;;;;;;;15.03;nan;99783.06;4965245;28;20026;-45
2023/03/31 09:17:17;;;;;;;8.93;1.92;;;;;;;15.12;nan;99777.91;4968463;28;20350;-46
2023/03/31 09:19:49;;;;;;;11.32;2.22;;;;;;;15.17;nan;99778.28;4969650;28;20034;-46
2023/03/31 09:22:21;;;;;;;6.68;2.08;;;;;;;15.21;nan;99764.63;4964656;28;20030;-45
2023/03/31 09:25:09;;;;;;;11.80;2.55;;;;;;;15.28;nan;99774.66;4985383;28;20370;-46
2023/03/31 09:27:36;;;;;;;9.90;2.15;;;;;;;15.30;nan;99767.41;4973530;28;20031;-47
2023/03/31 09:30:17;;;;;;;4.28;2.00;;;;;;;15.37;nan;99760.53;4971970;28;20027;-47
2023/03/31 09:32:44;;;;;;;8.52;3.17;;;;;;;15.43;nan;99761.81;4963980;28;20031;-46
2023/03/31 09:35:25;;;;;;;10.93;3.30;;;;;;;15.50;nan;99762.88;4964078;28;20039;-47
2023/03/31 09:37:52;;;;;;;4.93;1.73;;;;;;;15.52;nan;99755.63;4967954;28;20065;-47
2023/03/31 09:40:21;;;;;;;7.82;2.17;;;;;;;15.57;nan;99749.88;4973071;28;20027;-46
2023/03/31 09:43:00;;;;;;;11.50;2.17;;;;;;;15.59;nan;99750.56;4972846;28;20097;-48
2023/03/31 09:45:26;;;;;;;8.98;2.10;;;;;;;15.57;nan;99742.78;4977565;28;20501;-45
2023/03/31 09:48:05;;;;;;;11.85;1.90;;;;;;;15.57;nan;99742.78;4970613;28;20057;-46
2023/03/31 09:50:36;;;;;;;8.77;2.42;;;;;;;15.64;nan;99738.53;4967737;28;20122;-46
2023/03/31 09:53:03;;;;;;;8.23;2.92;;;;;;;15.73;nan;99731.53;4967075;28;20093;-46
2023/03/31 09:55:51;;;;;;;14.45;2.55;;;;;;;15.82;nan;99727.97;4969390;28;20034;-46
2023/03/31 09:58:17;;;;;;;8.68;2.08;;;;;;;15.87;nan;99729.38;4961361;28;20134;-46
2023/03/31 10:01:00;;;;;;;7.38;1.75;;;;;;;15.94;nan;99733.13;4957495;28;20125;-46
2023/03/31 10:03:28;;;;;;;6.88;1.50;;;;;;;15.97;nan;99727.50;4968644;28;20031;-47
2023/03/31 10:05:55;;;;;;;10.80;2.33;;;;;;;16.01;nan;99712.97;4966647;28;20456;-45
2023/03/31 10:08:33;;;;;;;6.57;1.77;;;;;;;16.06;nan;99717.81;4965692;28;20027;-46
2023/03/31 10:11:01;;;;;;;7.70;1.70;;;;;;;16.09;nan;99718.38;4972680;28;20031;-47
2023/03/31 10:13:49;;;;;;;9.95;1.80;;;;;;;16.17;nan;99719.44;4965514;28;20362;-47
2023/03/31 10:16:28;;;;;;;3.40;2.15;;;;;;;16.22;nan;99709.22;4968440;28;20474;-47
2023/03/31 10:18:54;;;;;;;4.35;0.90;;;;;;;16.29;nan;99705.81;4956884;28;20035;-46
2023/03/31 10:21:24;;;;;;;9.73;1.90;;;;;;;16.36;nan;99706.03;4970105;28;20366;-46
2023/03/31 10:23:51;;;;;;;6.05;1.52;;;;;;;16.43;nan;99698.28;4973898;28;20037;-46
2023/03/31 10:26:20;;;;;;;8.32;1.88;;;;;;;16.51;nan;99695.69;4968337;28;20045;-46
2023/03/31 10:28:49;;;;;;;11.07;2.65;;;;;;;16.59;nan;99690.47;4960814;28;20580;-49
2023/03/31 10:31:15;;;;;;;4.22;1.65;;;;;;;16.71;nan;99682.25;4961864;28;20595;-46
2023/03/31 10:33:46;;;;;;;9.48;1.98;;;;;;;16.85;nan;99678.22;4960707;28;20065;-46
2023/03/31 10:36:23;;;;;;;8.55;2.13;;;;;;;16.98;nan;99673.34;4958837;28;20316;-46
2023/03/31 10:38:51;;;;;;;7.72;1.65;;;;;;;17.05;nan;99679.69;4965149;28;20085;-47
2023/03/31 10:41:29;;;;;;;8.55;2.20;;;;;;;17.08;nan;99667.94;4970143;28;20509;-48
2023/03/31 10:43:59;;;;;;;9.30;1.60;;;;;;;17.08;nan;99669.72;4968522;28;20089;-46
2023/03/31 10:46:40;;;;;;;4.68;1.40;;;;;;;17.11;nan;99659.59;4960914;28;20034;-47
2023/03/31 10:49:26;;;;;;;9.48;2.30;;;;;;;17.13;nan;99657.63;4965024;28;20494;-46
2023/03/31 10:51:57;;;;;;;6.60;2.38;;;;;;;17.21;nan;99660.34;4963623;28;20039;-49
2023/03/31 10:54:23;;;;;;;14.77;3.22;;;;;;;17.26;nan;99649.25;4963994;28;20055;-47
2023/03/31 10:56:58;;;;;;;7.75;2.00;;;;;;;17.32;nan;99645.91;4959582;28;20458;-47
2023/03/31 10:59:51;;;;;;;6.95;1.70;;;;;;;17.45;nan;99648.16;4962491;28;20114;-46
2023/03/31 11:02:54;;;;;;;10.00;2.08;;;;;;;17.58;nan;99642.38;4957553;28;20034;-45
2023/03/31 11:05:29;;;;;;;7.35;2.03;;;;;;;17.71;nan;99635.78;4961446;28;20027;-45
2023/03/31 11:08:13;;;;;;;7.78;2.15;;;;;;;17.70;nan;99626.13;4964965;28;20038;-45
2023/03/31 11:10:38;;;;;;;4.68;2.15;;;;;;;17.73;nan;99633.78;4956833;28;20043;-46
2023/03/31 11:13:21;;;;;;;7.40;1.83;;;;;;;17.68;nan;99632.44;4966339;28;20081;-46
2023/03/31 11:16:12;;;;;;;8.27;1.63;;;;;;;17.65;nan;99630.09;4964415;28;20033;-46
2023/03/31 11:18:49;;;;;;;10.00;2.20;;;;;;;17.63;nan;99618.78;4955456;28;20035;-46
2023/03/31 11:21:55;;;;;;;11.20;1.60;;;;;;;17.64;nan;99617.78;4960906;28;20033;-46
2023/03/31 11:24:46;;;;;;;7.50;1.92;;;;;;;17.66;nan;99610.47;4959808;28;20402;-46
2023/03/31 11:27:11;;;;;;;6.45;2.67;;;;;;;17.57;nan;99603.47;4966459;28;20648;-46
2023/03/31 11:29:41;;;;;;;10.07;1.90;;;;;;;17.46;nan;99595.81;4963839;28;20129;-47
2023/03/31 11:32:32;;;;;;;3.42;0.98;;;;;;;17.30;nan;99597.44;4956014;28;20121;-47
2023/03/31 11:35:34;;;;;;;7.97;1.67;;;;;;;17.14;nan;99592.03;4958393;28;20042;-47
2023/03/31 11:40:58;;;;;;;8.60;2.38;;;;;;;16.87;nan;99585.88;4964905;28;20053;-51
2023/03/31 11:43:44;;;;;;;9.23;2.55;;;;;;;16.84;nan;99580.91;4968254;28;20047;-50
2023/03/31 11:46:25;;;;;;;7.85;2.67;;;;;;;16.79;nan;99581.34;4972552;28;20026;-51
2023/03/31 11:48:56;;;;;;;8.68;2.28;;;;;;;16.76;nan;99577.19;4970073;28;20121;-50
2023/03/31 11:51:46;;;;;;;10.45;2.65;;;;;;;16.75;nan;99572.88;4988740;28;20396;-49
2023/03/31 11:54:34;;;;;;;9.05;1.83;;;;;;;16.74;nan;99573.03;4983333;28;20500;-51
2023/03/31 11:57:12;;;;;;;4.63;1.63;;;;;;;16.72;nan;99565.22;4988387;28;20034;-52
2023/03/31 11:59:40;;;;;;;7.82;1.77;;;;;;;16.69;nan;99568.22;4986104;28;20121;-51
2023/03/31 12:02:16;;;;;;;6.63;1.40;;;;;;;16.71;nan;99558.22;4988690;28;20033;-50
2023/03/31 12:04:47;;;;;;;4.90;2.00;;;;;;;16.71;nan;99557.41;4985185;28;20026;-51
2023/03/31 12:07:30;;;;;;;9.57;2.15;;;;;;;16.74;nan;99541.97;4982314;28;20039;-50
2023/03/31 12:10:19;;;;;;;6.57;1.80;;;;;;;16.82;nan;99541.19;4984776;28;20093;-50